Terminal Aerodrome Forecast
Issued by NWS Lake Charles, LA

Home | Current Version | Previous Version | Text Only | Print | Product List | Glossary On
Versions: 1 2 3 4 5 6 7 8 9 10 11 12 13 14 15 16
000
FTUS44 KLCH 230500
TAFLFT
TAF
KLFT 230521Z 2306/2406 12004KT 4SM -RA BR OVC009
      TEMPO 2308/2312 1SM TSRA BKN005CB
     FM231200 16012KT 4SM -RA BR BKN005
     FM231700 21014KT P6SM SCT015=

USA.gov is the U.S. government's official web portal to all federal, state and local government web resources and services.